Time;durP1;ratioP1;P1;durP2;ratioP2;P2;SDS_P1;SDS_P2;PMS_P1;PMS_P2;Temp;Humidity;BMP_temperature;BMP_pressure;BME280_temperature;BME280_humidity;BME280_pressure;Samples;Min_cycle;Max_cycle;Signal;HPM_P1;HPM_P2
2023/07/31 00:02:25;;;;;;;9.23;4.85;;;;;;;;;;8486392;28;20043;-82
2023/07/31 00:06:28;;;;;;;6.80;5.10;;;;;;;;;;8488528;28;20405;-84
2023/07/31 00:10:31;;;;;;;8.82;5.10;;;;;;;;;;8497085;28;20057;-92
2023/07/31 00:14:35;;;;;;;8.32;4.88;;;;;;;;;;8487949;28;20054;-94
2023/07/31 00:18:38;;;;;;;11.70;5.50;;;;;;;;;;8494867;28;20051;-82
2023/07/31 00:22:41;;;;;;;6.57;5.00;;;;;;;;;;8481849;27;20040;-88
2023/07/31 00:26:43;;;;;;;7.65;5.53;;;;;;;;;;8496291;27;20055;-93
2023/07/31 00:30:48;;;;;;;8.68;6.00;;;;;;;;;;8494611;27;20045;-93
2023/07/31 00:34:51;;;;;;;8.30;5.90;;;;;;;;;;8491601;27;20162;-85
2023/07/31 00:38:53;;;;;;;9.88;5.85;;;;;;;;;;8473337;27;20509;-90
2023/07/31 00:42:56;;;;;;;9.10;5.65;;;;;;;;;;8478450;27;20122;-82
2023/07/31 00:47:00;;;;;;;9.73;5.10;;;;;;;;;;8491694;27;20474;-81
2023/07/31 00:51:03;;;;;;;8.50;5.43;;;;;;;;;;8497368;27;20482;-92
2023/07/31 00:55:07;;;;;;;10.45;6.10;;;;;;;;;;8500398;27;20047;-92
2023/07/31 00:59:10;;;;;;;10.90;7.60;;;;;;;;;;8497349;27;20204;-80
2023/07/31 01:03:14;;;;;;;11.55;6.85;;;;;;;;;;8492132;27;20065;-91
2023/07/31 01:07:26;;;;;;;9.85;6.88;;;;;;;;;;8492202;27;20059;-92
2023/07/31 01:11:31;;;;;;;9.98;6.82;;;;;;;;;;8471897;27;20043;-93
2023/07/31 01:15:34;;;;;;;12.75;7.35;;;;;;;;;;8500536;27;20135;-94
2023/07/31 01:19:38;;;;;;;11.30;6.82;;;;;;;;;;8467945;27;20411;-92
2023/07/31 01:24:02;;;;;;;14.38;8.77;;;;;;;;;;8486891;27;20047;-92
2023/07/31 01:28:09;;;;;;;12.15;7.30;;;;;;;;;;8500381;27;20847;-93
2023/07/31 01:32:13;;;;;;;14.38;7.70;;;;;;;;;;8472664;27;20059;-89
2023/07/31 01:36:16;;;;;;;11.73;7.57;;;;;;;;;;8485691;27;20051;-92
2023/07/31 01:40:18;;;;;;;11.88;7.68;;;;;;;;;;8483704;27;20153;-92
2023/07/31 01:44:23;;;;;;;10.60;6.30;;;;;;;;;;8492644;27;20134;-81
2023/07/31 01:48:26;;;;;;;9.20;5.80;;;;;;;;;;8477631;27;20071;-92
2023/07/31 01:52:29;;;;;;;10.93;6.03;;;;;;;;;;8484355;27;20471;-86
2023/07/31 01:56:32;;;;;;;9.07;6.45;;;;;;;;;;8478426;27;20039;-91
2023/07/31 02:00:37;;;;;;;12.90;7.07;;;;;;;;;;8483151;27;20045;-92
2023/07/31 02:04:40;;;;;;;9.88;5.78;;;;;;;;;;8480119;27;20130;-89
2023/07/31 02:08:43;;;;;;;8.50;6.47;;;;;;;;;;8469906;27;20046;-81
2023/07/31 02:12:46;;;;;;;12.98;6.50;;;;;;;;;;8468347;27;20188;-86
2023/07/31 02:16:50;;;;;;;14.02;7.53;;;;;;;;;;8473952;27;20059;-82
2023/07/31 02:20:53;;;;;;;10.77;7.88;;;;;;;;;;8471245;27;20050;-81
2023/07/31 02:24:56;;;;;;;14.77;8.77;;;;;;;;;;8476489;27;20070;-84
2023/07/31 02:28:59;;;;;;;12.18;7.75;;;;;;;;;;8415112;28;20127;-93
2023/07/31 02:33:05;;;;;;;12.07;8.63;;;;;;;;;;8410624;28;20083;-91
2023/07/31 02:37:07;;;;;;;10.45;6.88;;;;;;;;;;8416178;28;20131;-92
2023/07/31 02:41:10;;;;;;;9.68;6.60;;;;;;;;;;8414660;28;20097;-93
2023/07/31 02:45:13;;;;;;;10.35;6.65;;;;;;;;;;8410418;28;20138;-93
2023/07/31 02:49:18;;;;;;;8.30;5.78;;;;;;;;;;8417883;28;20076;-96
2023/07/31 02:53:21;;;;;;;12.45;7.05;;;;;;;;;;8414464;28;20046;-94
2023/07/31 02:57:24;;;;;;;8.98;6.70;;;;;;;;;;8418666;28;20096;-92
2023/07/31 03:01:27;;;;;;;11.70;6.53;;;;;;;;;;8418484;28;20449;-94
2023/07/31 03:05:31;;;;;;;8.73;6.75;;;;;;;;;;8415091;28;20082;-86
2023/07/31 03:09:34;;;;;;;10.68;7.03;;;;;;;;;;8413839;28;20044;-82
2023/07/31 03:13:37;;;;;;;9.07;6.95;;;;;;;;;;8408584;28;20051;-93
2023/07/31 03:44:41;;;;;;;12.80;6.85;;;;;;;;;;8450003;27;20400;-87
2023/07/31 03:48:44;;;;;;;10.65;6.93;;;;;;;;;;8431435;28;20522;-91
2023/07/31 03:52:47;;;;;;;10.75;6.28;;;;;;;;;;8435652;28;20432;-82
2023/07/31 03:56:50;;;;;;;10.90;5.78;;;;;;;;;;8439804;28;20044;-86
2023/07/31 04:00:54;;;;;;;9.02;6.10;;;;;;;;;;8434312;28;20044;-84
2023/07/31 04:04:57;;;;;;;8.50;5.72;;;;;;;;;;8420636;28;20406;-84
2023/07/31 04:09:00;;;;;;;9.95;6.00;;;;;;;;;;8424530;28;20044;-87
2023/07/31 04:13:03;;;;;;;7.03;5.07;;;;;;;;;;8432073;28;20052;-83
2023/07/31 04:17:07;;;;;;;11.80;5.72;;;;;;;;;;8466831;28;20123;-87
2023/07/31 04:21:10;;;;;;;8.95;5.50;;;;;;;;;;8425411;28;20048;-93
2023/07/31 04:25:13;;;;;;;8.65;5.40;;;;;;;;;;8422167;28;20064;-82
2023/07/31 04:29:16;;;;;;;10.52;6.70;;;;;;;;;;8437342;28;20041;-82
2023/07/31 04:33:20;;;;;;;12.55;6.07;;;;;;;;;;8446340;28;20040;-84
2023/07/31 04:37:23;;;;;;;9.35;5.60;;;;;;;;;;8434382;28;20475;-84
2023/07/31 04:41:26;;;;;;;11.75;6.15;;;;;;;;;;8433460;28;20060;-84
2023/07/31 04:45:29;;;;;;;7.90;5.93;;;;;;;;;;8411681;28;20049;-96
2023/07/31 04:49:33;;;;;;;13.10;5.18;;;;;;;;;;8400638;28;20403;-91
2023/07/31 04:53:36;;;;;;;7.15;5.10;;;;;;;;;;8404069;28;20045;-83
2023/07/31 04:57:38;;;;;;;10.43;4.88;;;;;;;;;;8401480;28;20071;-94
2023/07/31 05:01:41;;;;;;;6.40;4.70;;;;;;;;;;8402332;28;20053;-94
2023/07/31 05:05:45;;;;;;;8.10;5.07;;;;;;;;;;8402670;28;20048;-95
2023/07/31 05:09:48;;;;;;;8.40;4.60;;;;;;;;;;8407539;28;20059;-90
2023/07/31 05:13:51;;;;;;;6.10;4.20;;;;;;;;;;8404212;28;20048;-83
2023/07/31 05:17:54;;;;;;;5.72;3.90;;;;;;;;;;8403804;28;20060;-82
2023/07/31 05:21:58;;;;;;;8.60;3.90;;;;;;;;;;8400256;28;20052;-86
2023/07/31 05:26:04;;;;;;;6.45;3.95;;;;;;;;;;8398063;28;20480;-83
2023/07/31 05:30:09;;;;;;;6.47;3.50;;;;;;;;;;8400005;28;20036;-82
2023/07/31 05:34:11;;;;;;;6.13;3.17;;;;;;;;;;8403449;28;20107;-82
2023/07/31 05:38:16;;;;;;;6.03;3.22;;;;;;;;;;8407308;28;20487;-91
2023/07/31 05:42:18;;;;;;;5.72;3.13;;;;;;;;;;8436557;27;20055;-89
2023/07/31 05:46:21;;;;;;;6.55;3.10;;;;;;;;;;8407030;28;20050;-83
2023/07/31 05:50:27;;;;;;;6.25;3.25;;;;;;;;;;8407425;28;20048;-80
2023/07/31 05:54:33;;;;;;;6.20;3.10;;;;;;;;;;8394788;28;20114;-83
2023/07/31 05:58:36;;;;;;;8.50;3.40;;;;;;;;;;8397549;28;20119;-82
2023/07/31 06:02:39;;;;;;;5.90;3.03;;;;;;;;;;8407812;28;20112;-82
2023/07/31 06:06:42;;;;;;;4.53;3.00;;;;;;;;;;8404898;28;20101;-90
2023/07/31 06:10:46;;;;;;;9.13;3.65;;;;;;;;;;8397722;28;20476;-85
2023/07/31 06:14:50;;;;;;;5.57;3.50;;;;;;;;;;8412646;28;20127;-90
2023/07/31 06:18:53;;;;;;;4.78;2.85;;;;;;;;;;8398641;28;20507;-91
2023/07/31 06:22:55;;;;;;;8.68;3.38;;;;;;;;;;8393803;28;20048;-82
2023/07/31 06:27:00;;;;;;;4.40;2.83;;;;;;;;;;8399209;28;20089;-91
2023/07/31 06:31:03;;;;;;;4.70;2.95;;;;;;;;;;8397326;28;20162;-91
2023/07/31 06:35:06;;;;;;;6.25;2.80;;;;;;;;;;8401249;28;20049;-88
2023/07/31 06:39:10;;;;;;;6.25;2.70;;;;;;;;;;8402456;28;20044;-82
2023/07/31 06:43:14;;;;;;;4.00;2.40;;;;;;;;;;8399485;28;20048;-88
2023/07/31 06:47:22;;;;;;;4.07;2.70;;;;;;;;;;8415309;28;20050;-95
2023/07/31 06:51:31;;;;;;;5.15;2.40;;;;;;;;;;8362110;28;20044;-96
2023/07/31 06:55:34;;;;;;;4.97;2.38;;;;;;;;;;8394978;28;20542;-93
2023/07/31 06:59:38;;;;;;;4.90;2.22;;;;;;;;;;8397966;28;20049;-82
2023/07/31 07:03:41;;;;;;;3.92;2.28;;;;;;;;;;8398307;28;20058;-96
2023/07/31 07:07:45;;;;;;;3.55;2.40;;;;;;;;;;8407062;28;20480;-83
2023/07/31 07:11:47;;;;;;;2.95;2.10;;;;;;;;;;8398681;28;20471;-85
2023/07/31 07:15:52;;;;;;;4.60;2.33;;;;;;;;;;8398747;28;20040;-89
2023/07/31 07:19:56;;;;;;;5.57;2.35;;;;;;;;;;8412685;28;20036;-96
2023/07/31 07:23:59;;;;;;;3.30;2.03;;;;;;;;;;8400199;28;20068;-83
2023/07/31 07:28:02;;;;;;;3.75;2.20;;;;;;;;;;8411092;28;20045;-84
2023/07/31 07:32:07;;;;;;;7.38;2.80;;;;;;;;;;8401442;28;20139;-89
2023/07/31 07:36:12;;;;;;;4.97;2.22;;;;;;;;;;8411152;28;20041;-88
2023/07/31 07:40:15;;;;;;;5.78;2.20;;;;;;;;;;8397390;28;20048;-83
2023/07/31 07:44:18;;;;;;;3.13;2.00;;;;;;;;;;8398553;28;20049;-88
2023/07/31 07:48:24;;;;;;;5.75;2.13;;;;;;;;;;8398852;28;20044;-82
2023/07/31 07:52:28;;;;;;;3.55;1.92;;;;;;;;;;8402610;28;20059;-85
2023/07/31 07:56:31;;;;;;;6.25;2.40;;;;;;;;;;8396362;28;20399;-94
2023/07/31 08:00:34;;;;;;;4.22;2.05;;;;;;;;;;8381653;28;20510;-89
2023/07/31 08:04:38;;;;;;;3.63;2.35;;;;;;;;;;8396933;28;20072;-87
2023/07/31 08:08:41;;;;;;;2.88;2.10;;;;;;;;;;8383396;28;20488;-84
2023/07/31 08:12:44;;;;;;;4.07;2.28;;;;;;;;;;8391518;28;20045;-96
2023/07/31 08:16:49;;;;;;;6.30;2.50;;;;;;;;;;8402299;28;20051;-83
2023/07/31 08:20:55;;;;;;;4.00;2.40;;;;;;;;;;8398378;28;20545;-94
2023/07/31 08:24:59;;;;;;;3.05;2.28;;;;;;;;;;8402085;28;20478;-84
2023/07/31 08:29:02;;;;;;;5.55;2.90;;;;;;;;;;8401267;28;20118;-92
2023/07/31 08:33:05;;;;;;;4.45;2.63;;;;;;;;;;8401878;28;20044;-92
2023/07/31 08:37:11;;;;;;;5.15;2.67;;;;;;;;;;8402895;28;20033;-90
2023/07/31 08:41:16;;;;;;;6.38;3.35;;;;;;;;;;8394210;28;20530;-94
2023/07/31 08:45:20;;;;;;;5.30;2.55;;;;;;;;;;8399749;28;20477;-95
2023/07/31 08:49:24;;;;;;;4.55;2.50;;;;;;;;;;8401466;28;20087;-95
2023/07/31 08:53:29;;;;;;;4.57;2.45;;;;;;;;;;8413810;28;20106;-92
2023/07/31 08:57:33;;;;;;;6.00;2.67;;;;;;;;;;8404166;28;20068;-84
2023/07/31 09:01:42;;;;;;;5.57;2.60;;;;;;;;;;8407477;28;20045;-93
2023/07/31 09:05:46;;;;;;;5.88;2.90;;;;;;;;;;8416873;28;20051;-94
2023/07/31 09:09:53;;;;;;;4.63;2.50;;;;;;;;;;8417863;28;20048;-87
2023/07/31 09:14:01;;;;;;;8.23;2.53;;;;;;;;;;8432739;28;20045;-84
2023/07/31 09:18:05;;;;;;;5.10;2.92;;;;;;;;;;8405501;28;20040;-87
2023/07/31 09:22:08;;;;;;;4.40;2.50;;;;;;;;;;8416996;28;20055;-92
2023/07/31 09:26:29;;;;;;;4.05;2.50;;;;;;;;;;8399183;28;20044;-93
2023/07/31 09:30:32;;;;;;;7.88;2.85;;;;;;;;;;8392876;28;20543;-96
2023/07/31 09:34:39;;;;;;;6.18;2.50;;;;;;;;;;8401253;28;20044;-82
2023/07/31 09:38:42;;;;;;;3.95;2.40;;;;;;;;;;8399364;28;20495;-82
2023/07/31 09:42:46;;;;;;;5.85;2.40;;;;;;;;;;8409387;28;20048;-85
2023/07/31 09:46:49;;;;;;;3.35;2.20;;;;;;;;;;8401001;28;20056;-86
2023/07/31 09:50:52;;;;;;;4.97;2.22;;;;;;;;;;8413986;28;20380;-84
2023/07/31 09:54:55;;;;;;;4.43;2.28;;;;;;;;;;8407598;28;20661;-96
2023/07/31 09:59:00;;;;;;;4.70;2.40;;;;;;;;;;8410474;28;20160;-84
2023/07/31 10:03:07;;;;;;;5.25;2.42;;;;;;;;;;8398391;28;20044;-86
2023/07/31 10:07:10;;;;;;;4.85;2.10;;;;;;;;;;8403702;28;20155;-82
2023/07/31 10:11:14;;;;;;;3.25;1.90;;;;;;;;;;8399269;28;20044;-84
2023/07/31 10:15:19;;;;;;;4.47;2.33;;;;;;;;;;8408768;28;20131;-86
2023/07/31 10:19:23;;;;;;;4.45;2.25;;;;;;;;;;8405029;28;20044;-92
2023/07/31 10:23:26;;;;;;;4.70;2.47;;;;;;;;;;8392954;28;20102;-84
2023/07/31 10:27:30;;;;;;;6.07;2.33;;;;;;;;;;8406338;28;20044;-83
2023/07/31 10:31:35;;;;;;;5.38;2.25;;;;;;;;;;8389001;28;20052;-84
2023/07/31 10:35:38;;;;;;;2.92;1.98;;;;;;;;;;8412485;28;20082;-83
2023/07/31 10:39:41;;;;;;;5.18;2.10;;;;;;;;;;8407293;28;20123;-83
2023/07/31 10:43:44;;;;;;;3.33;2.13;;;;;;;;;;8395582;28;20143;-83
2023/07/31 10:47:48;;;;;;;5.43;1.88;;;;;;;;;;8398756;28;20060;-83
2023/07/31 10:51:52;;;;;;;6.10;2.03;;;;;;;;;;8402277;28;20136;-93
2023/07/31 10:55:59;;;;;;;2.83;1.67;;;;;;;;;;8407344;28;20102;-84
2023/07/31 11:00:21;;;;;;;4.15;2.03;;;;;;;;;;8407840;28;20063;-84
2023/07/31 11:04:26;;;;;;;3.30;2.10;;;;;;;;;;8399045;28;20067;-84
2023/07/31 11:08:31;;;;;;;3.95;1.88;;;;;;;;;;8408501;28;20057;-87
2023/07/31 11:12:35;;;;;;;4.03;1.83;;;;;;;;;;8397858;28;20128;-87
2023/07/31 11:16:38;;;;;;;4.43;1.95;;;;;;;;;;8401569;28;20072;-84
2023/07/31 11:20:43;;;;;;;6.68;2.10;;;;;;;;;;8402502;28;20391;-83
2023/07/31 11:24:46;;;;;;;4.40;1.90;;;;;;;;;;8402693;28;20048;-89
2023/07/31 11:28:50;;;;;;;4.65;2.10;;;;;;;;;;8395264;28;20044;-82
2023/07/31 11:32:53;;;;;;;4.47;2.13;;;;;;;;;;8410309;28;20044;-90
2023/07/31 11:36:58;;;;;;;6.80;2.17;;;;;;;;;;8414887;28;20044;-82
2023/07/31 11:41:03;;;;;;;5.40;1.80;;;;;;;;;;8391873;28;20049;-89
2023/07/31 11:45:06;;;;;;;6.10;2.10;;;;;;;;;;8395952;28;20056;-83
2023/07/31 11:49:10;;;;;;;6.53;2.00;;;;;;;;;;8408791;28;20496;-84
2023/07/31 11:53:15;;;;;;;4.05;1.80;;;;;;;;;;8404523;28;20044;-84
2023/07/31 11:57:19;;;;;;;5.97;1.92;;;;;;;;;;8412292;28;20079;-85
2023/07/31 12:01:23;;;;;;;4.63;1.70;;;;;;;;;;8414071;28;20082;-84
2023/07/31 12:05:27;;;;;;;4.38;1.80;;;;;;;;;;8400169;28;20084;-90
2023/07/31 12:09:31;;;;;;;3.65;1.70;;;;;;;;;;8400218;28;20072;-83
2023/07/31 12:13:35;;;;;;;3.33;1.70;;;;;;;;;;8401099;28;21277;-89
2023/07/31 12:17:38;;;;;;;2.22;1.60;;;;;;;;;;8401065;28;20082;-89
2023/07/31 12:21:41;;;;;;;3.35;1.70;;;;;;;;;;8400772;28;20087;-87
2023/07/31 12:25:46;;;;;;;5.32;1.77;;;;;;;;;;8398232;28;20124;-87
2023/07/31 12:29:49;;;;;;;2.53;1.58;;;;;;;;;;8398182;28;20087;-84
2023/07/31 12:33:52;;;;;;;5.07;1.70;;;;;;;;;;8402013;28;20147;-93
2023/07/31 12:37:55;;;;;;;3.55;1.75;;;;;;;;;;8406006;28;20064;-84
2023/07/31 12:41:59;;;;;;;4.68;2.03;;;;;;;;;;8415036;28;20376;-91
2023/07/31 12:46:03;;;;;;;3.72;1.80;;;;;;;;;;8407776;28;20119;-88
2023/07/31 12:50:07;;;;;;;3.75;1.75;;;;;;;;;;8406619;28;20063;-86
2023/07/31 12:54:11;;;;;;;3.38;1.70;;;;;;;;;;8399266;28;20048;-87
2023/07/31 12:58:15;;;;;;;3.17;1.73;;;;;;;;;;8402595;28;20040;-83
2023/07/31 13:02:18;;;;;;;4.60;1.92;;;;;;;;;;8407326;28;20044;-83
2023/07/31 13:06:21;;;;;;;3.95;1.80;;;;;;;;;;8391840;28;20048;-85
2023/07/31 13:10:26;;;;;;;2.58;1.70;;;;;;;;;;8405100;28;20048;-89
2023/07/31 13:14:31;;;;;;;4.05;1.77;;;;;;;;;;8402453;28;20068;-84
2023/07/31 13:18:34;;;;;;;3.50;1.48;;;;;;;;;;8400450;28;20084;-84
2023/07/31 13:22:38;;;;;;;4.32;1.70;;;;;;;;;;8399132;28;20535;-85
2023/07/31 13:26:42;;;;;;;2.80;1.60;;;;;;;;;;8410189;28;20049;-88
2023/07/31 13:30:47;;;;;;;3.42;1.75;;;;;;;;;;8409915;28;20048;-86
2023/07/31 13:34:50;;;;;;;2.70;1.48;;;;;;;;;;8427374;28;20329;-87
2023/07/31 13:38:54;;;;;;;2.75;1.40;;;;;;;;;;8379789;28;20149;-89
2023/07/31 13:42:58;;;;;;;3.40;1.50;;;;;;;;;;8401575;28;20138;-90
2023/07/31 13:47:03;;;;;;;5.18;1.83;;;;;;;;;;8400342;28;20060;-89
2023/07/31 14:02:23;;;;;;;4.72;1.70;;;;;;;;;;8435481;27;1806202;-89
2023/07/31 14:06:27;;;;;;;5.10;1.80;;;;;;;;;;8466590;28;20035;-89
2023/07/31 14:10:30;;;;;;;3.78;1.80;;;;;;;;;;8471598;28;20074;-90
2023/07/31 14:14:34;;;;;;;3.95;1.90;;;;;;;;;;8476363;28;20127;-89
2023/07/31 14:18:38;;;;;;;3.47;1.95;;;;;;;;;;8479644;28;20488;-89
2023/07/31 14:22:41;;;;;;;4.20;1.70;;;;;;;;;;8491173;28;20486;-89
2023/07/31 14:26:44;;;;;;;4.63;1.80;;;;;;;;;;8474226;28;20051;-89
2023/07/31 14:30:47;;;;;;;4.60;2.00;;;;;;;;;;8477138;28;20189;-88
2023/07/31 14:34:52;;;;;;;5.85;1.80;;;;;;;;;;8473964;28;20368;-89
2023/07/31 14:38:55;;;;;;;2.78;1.80;;;;;;;;;;8460148;28;20407;-89
2023/07/31 14:42:58;;;;;;;4.13;1.98;;;;;;;;;;8476173;28;20118;-88
2023/07/31 14:47:01;;;;;;;3.28;2.08;;;;;;;;;;8490541;28;20136;-88
2023/07/31 14:51:06;;;;;;;3.75;2.10;;;;;;;;;;8475679;28;20043;-90
2023/07/31 14:55:09;;;;;;;4.03;2.00;;;;;;;;;;8454150;28;20499;-89
2023/07/31 14:59:13;;;;;;;3.33;1.73;;;;;;;;;;8481939;28;20414;-89
2023/07/31 15:03:16;;;;;;;3.08;1.80;;;;;;;;;;8455251;28;20048;-88
2023/07/31 15:07:21;;;;;;;2.08;1.45;;;;;;;;;;8451777;28;20048;-89
2023/07/31 15:11:24;;;;;;;4.97;2.05;;;;;;;;;;8441582;28;20101;-89
2023/07/31 15:15:28;;;;;;;1.77;1.65;;;;;;;;;;8451594;28;20086;-89
2023/07/31 15:19:34;;;;;;;5.05;1.75;;;;;;;;;;8456149;28;20048;-89
2023/07/31 15:23:39;;;;;;;4.25;1.90;;;;;;;;;;8460107;28;20047;-89
2023/07/31 15:27:42;;;;;;;3.33;1.80;;;;;;;;;;8458654;28;20048;-88
2023/07/31 15:31:45;;;;;;;4.45;1.95;;;;;;;;;;8438855;28;20074;-89
2023/07/31 15:35:48;;;;;;;6.13;1.80;;;;;;;;;;8454334;28;20170;-89
2023/07/31 15:39:53;;;;;;;4.53;1.85;;;;;;;;;;8451607;28;20035;-89
2023/07/31 15:43:56;;;;;;;5.25;1.90;;;;;;;;;;8452324;28;20126;-89
2023/07/31 15:48:00;;;;;;;4.00;1.95;;;;;;;;;;8465474;28;20418;-89
2023/07/31 15:52:03;;;;;;;5.80;1.90;;;;;;;;;;8465877;28;20043;-89
2023/07/31 15:56:07;;;;;;;6.57;2.10;;;;;;;;;;8446241;28;20066;-89
2023/07/31 16:00:11;;;;;;;4.00;2.45;;;;;;;;;;8438288;28;20052;-90
2023/07/31 16:04:14;;;;;;;4.30;2.40;;;;;;;;;;8444901;28;20761;-89
2023/07/31 16:08:17;;;;;;;4.78;2.15;;;;;;;;;;8449466;28;20513;-89
2023/07/31 16:12:22;;;;;;;6.38;2.10;;;;;;;;;;8440532;28;20134;-90
2023/07/31 16:16:27;;;;;;;7.35;2.30;;;;;;;;;;8452359;28;20112;-90
2023/07/31 16:20:31;;;;;;;3.33;2.10;;;;;;;;;;8459054;28;20046;-91
2023/07/31 16:24:34;;;;;;;5.57;2.38;;;;;;;;;;8448893;28;20150;-88
2023/07/31 16:28:39;;;;;;;5.20;2.30;;;;;;;;;;8437082;28;20050;-90
2023/07/31 16:32:42;;;;;;;4.45;1.95;;;;;;;;;;8454524;28;20055;-89
2023/07/31 16:36:45;;;;;;;3.33;2.10;;;;;;;;;;8461035;28;20054;-90
2023/07/31 16:40:49;;;;;;;6.70;2.40;;;;;;;;;;8454001;28;20081;-89
2023/07/31 16:44:53;;;;;;;5.72;1.88;;;;;;;;;;8447630;28;20493;-90
2023/07/31 16:48:56;;;;;;;4.00;2.00;;;;;;;;;;8449449;28;20043;-90
2023/07/31 16:52:59;;;;;;;4.18;1.75;;;;;;;;;;8444096;28;20048;-90
2023/07/31 16:57:02;;;;;;;8.48;2.05;;;;;;;;;;8438784;28;20478;-90
2023/07/31 17:01:07;;;;;;;3.13;2.03;;;;;;;;;;8428102;28;20454;-89
2023/07/31 17:05:10;;;;;;;6.32;2.25;;;;;;;;;;8441579;28;20134;-90
2023/07/31 17:09:13;;;;;;;7.18;2.53;;;;;;;;;;8449750;28;20039;-90
2023/07/31 17:13:16;;;;;;;4.40;1.90;;;;;;;;;;8436165;28;20403;-90
2023/07/31 17:17:23;;;;;;;6.20;2.15;;;;;;;;;;8442657;28;20054;-89
2023/07/31 17:21:27;;;;;;;5.88;2.10;;;;;;;;;;8443069;28;20046;-89
2023/07/31 17:25:30;;;;;;;3.65;2.08;;;;;;;;;;8442986;28;20101;-89
2023/07/31 17:29:35;;;;;;;5.88;2.47;;;;;;;;;;8444411;28;20399;-90
2023/07/31 17:33:39;;;;;;;8.70;2.63;;;;;;;;;;8454778;28;20076;-90
2023/07/31 17:37:43;;;;;;;3.92;2.05;;;;;;;;;;8444198;28;20095;-90
2023/07/31 17:41:46;;;;;;;3.55;2.10;;;;;;;;;;8449232;28;20184;-90
2023/07/31 17:45:50;;;;;;;6.07;2.50;;;;;;;;;;8449080;28;20131;-89
2023/07/31 17:49:56;;;;;;;4.05;2.58;;;;;;;;;;8462204;28;20049;-90
2023/07/31 17:54:01;;;;;;;5.43;2.40;;;;;;;;;;8456061;28;20051;-90
2023/07/31 17:58:04;;;;;;;6.63;2.28;;;;;;;;;;8439064;28;20067;-89
2023/07/31 18:02:08;;;;;;;5.55;2.60;;;;;;;;;;8439547;28;20141;-90
2023/07/31 18:06:18;;;;;;;5.57;2.40;;;;;;;;;;8452514;28;20394;-91
2023/07/31 18:10:22;;;;;;;5.00;2.53;;;;;;;;;;8442159;28;20048;-90
2023/07/31 18:14:26;;;;;;;7.45;2.55;;;;;;;;;;8461007;28;20044;-85
2023/07/31 18:18:30;;;;;;;4.80;2.25;;;;;;;;;;8447032;28;20067;-88
2023/07/31 18:22:38;;;;;;;8.38;2.95;;;;;;;;;;8456944;28;20062;-89
2023/07/31 18:26:42;;;;;;;5.35;2.88;;;;;;;;;;8440425;28;20058;-87
2023/07/31 18:30:46;;;;;;;4.38;2.63;;;;;;;;;;8456461;28;20564;-86
2023/07/31 18:34:50;;;;;;;4.65;2.70;;;;;;;;;;8453864;28;20074;-87
2023/07/31 18:38:57;;;;;;;18.63;7.30;;;;;;;;;;8452684;28;20040;-90
2023/07/31 18:43:02;;;;;;;14.25;6.35;;;;;;;;;;8448110;28;20093;-88
2023/07/31 18:47:06;;;;;;;10.02;4.03;;;;;;;;;;8457408;28;20149;-87
2023/07/31 18:51:09;;;;;;;12.30;4.97;;;;;;;;;;8446608;28;20048;-87
2023/07/31 18:55:15;;;;;;;8.65;4.38;;;;;;;;;;8454884;28;20131;-89
2023/07/31 18:59:19;;;;;;;5.50;3.10;;;;;;;;;;8448508;28;20605;-90
2023/07/31 19:03:24;;;;;;;8.70;3.47;;;;;;;;;;8455145;28;20059;-88
2023/07/31 19:07:28;;;;;;;7.45;3.72;;;;;;;;;;8453628;28;20105;-86
2023/07/31 19:11:35;;;;;;;8.40;3.42;;;;;;;;;;8453563;28;20493;-89
2023/07/31 19:15:38;;;;;;;8.93;3.78;;;;;;;;;;8460354;28;20055;-88
2023/07/31 19:19:43;;;;;;;8.75;3.58;;;;;;;;;;8441883;28;20040;-91
2023/07/31 19:23:48;;;;;;;7.97;3.40;;;;;;;;;;8452091;28;20040;-87
2023/07/31 19:27:54;;;;;;;6.90;3.30;;;;;;;;;;8466640;28;20044;-86
2023/07/31 19:31:57;;;;;;;5.72;3.40;;;;;;;;;;8434340;28;20373;-89
2023/07/31 19:36:02;;;;;;;8.32;4.30;;;;;;;;;;8444860;28;20055;-90
2023/07/31 19:40:08;;;;;;;8.38;4.00;;;;;;;;;;8466388;28;20047;-87
2023/07/31 19:44:12;;;;;;;7.38;4.18;;;;;;;;;;8461584;28;20062;-86
2023/07/31 19:48:17;;;;;;;8.57;4.13;;;;;;;;;;8454948;28;20051;-90
2023/07/31 19:52:21;;;;;;;7.85;4.03;;;;;;;;;;8454246;28;20749;-90
2023/07/31 19:56:24;;;;;;;7.85;3.70;;;;;;;;;;8440311;28;20452;-91
2023/07/31 20:00:30;;;;;;;14.07;7.82;;;;;;;;;;8465454;28;20055;-87
2023/07/31 20:04:33;;;;;;;12.32;6.18;;;;;;;;;;8465720;28;20084;-86
2023/07/31 20:08:36;;;;;;;9.40;5.32;;;;;;;;;;8450527;28;20410;-86
2023/07/31 20:12:40;;;;;;;8.98;5.13;;;;;;;;;;8440635;28;20048;-91
2023/07/31 20:16:47;;;;;;;9.15;3.90;;;;;;;;;;8450389;28;20112;-88
2023/07/31 20:20:51;;;;;;;7.60;3.55;;;;;;;;;;8442539;28;20048;-89
2023/07/31 20:24:54;;;;;;;9.40;4.50;;;;;;;;;;8447739;28;20096;-86
2023/07/31 20:28:58;;;;;;;9.05;3.80;;;;;;;;;;8464657;28;20040;-92
2023/07/31 20:33:04;;;;;;;6.53;3.70;;;;;;;;;;8451007;28;20044;-88
2023/07/31 20:37:08;;;;;;;9.43;4.18;;;;;;;;;;8454574;28;20487;-88
2023/07/31 20:41:12;;;;;;;14.35;7.05;;;;;;;;;;8447863;28;20043;-89
2023/07/31 20:45:16;;;;;;;16.13;6.97;;;;;;;;;;8453993;28;20134;-87
2023/07/31 20:49:21;;;;;;;11.88;6.20;;;;;;;;;;8454689;28;20047;-91
2023/07/31 20:53:24;;;;;;;10.40;5.10;;;;;;;;;;8463976;28;20134;-87
2023/07/31 20:57:28;;;;;;;10.00;4.60;;;;;;;;;;8447164;28;20040;-86
2023/07/31 21:01:31;;;;;;;11.15;4.47;;;;;;;;;;8453457;28;20055;-87
2023/07/31 21:05:35;;;;;;;10.13;4.22;;;;;;;;;;8463720;28;20189;-86
2023/07/31 21:09:38;;;;;;;11.40;5.38;;;;;;;;;;8463830;28;20115;-87
2023/07/31 21:13:42;;;;;;;9.00;5.00;;;;;;;;;;8436186;28;20074;-87
2023/07/31 21:17:45;;;;;;;11.60;6.20;;;;;;;;;;8463591;28;20122;-86
2023/07/31 21:21:49;;;;;;;9.65;5.10;;;;;;;;;;8447260;28;20092;-88
2023/07/31 21:25:53;;;;;;;10.43;4.57;;;;;;;;;;8443690;28;20047;-86
2023/07/31 21:29:57;;;;;;;7.70;4.05;;;;;;;;;;8457176;28;20449;-86
2023/07/31 21:34:00;;;;;;;10.40;4.50;;;;;;;;;;8443192;28;20118;-86
2023/07/31 21:38:05;;;;;;;9.13;4.38;;;;;;;;;;8432762;28;20047;-91
2023/07/31 21:42:08;;;;;;;7.28;4.55;;;;;;;;;;8449382;28;20127;-86
2023/07/31 21:46:11;;;;;;;8.32;4.82;;;;;;;;;;8445560;28;20119;-85
2023/07/31 21:50:14;;;;;;;8.52;4.88;;;;;;;;;;8453298;28;20039;-86
2023/07/31 21:54:19;;;;;;;7.80;4.32;;;;;;;;;;8431809;28;20094;-87
2023/07/31 21:58:22;;;;;;;8.05;4.70;;;;;;;;;;8434603;28;20044;-87
2023/07/31 22:02:25;;;;;;;9.88;4.78;;;;;;;;;;8439717;28;20044;-86
2023/07/31 22:06:28;;;;;;;8.10;4.68;;;;;;;;;;8432159;28;20126;-86
2023/07/31 22:10:31;;;;;;;8.02;4.68;;;;;;;;;;8448987;28;20406;-86
2023/07/31 22:14:34;;;;;;;9.35;5.25;;;;;;;;;;8455536;28;20126;-85
2023/07/31 22:18:37;;;;;;;7.60;4.22;;;;;;;;;;8455614;28;20072;-87
2023/07/31 22:22:40;;;;;;;9.20;4.78;;;;;;;;;;8451661;28;20547;-85
2023/07/31 22:26:44;;;;;;;9.32;4.60;;;;;;;;;;8435459;28;20040;-86
2023/07/31 22:30:47;;;;;;;7.80;4.35;;;;;;;;;;8448849;28;20123;-86
2023/07/31 22:34:50;;;;;;;8.73;4.65;;;;;;;;;;8452729;28;20123;-86
2023/07/31 22:38:53;;;;;;;9.50;4.88;;;;;;;;;;8454995;28;20040;-85
2023/07/31 22:42:58;;;;;;;11.65;4.97;;;;;;;;;;8448188;28;20483;-85
2023/07/31 22:47:01;;;;;;;7.97;4.68;;;;;;;;;;8439693;28;20186;-86
2023/07/31 22:51:07;;;;;;;7.72;4.90;;;;;;;;;;8456115;28;20086;-85
2023/07/31 22:55:10;;;;;;;7.60;4.70;;;;;;;;;;8448194;28;20074;-86
2023/07/31 22:59:14;;;;;;;11.18;5.38;;;;;;;;;;8441640;28;20079;-87
2023/07/31 23:03:17;;;;;;;8.70;4.65;;;;;;;;;;8459139;28;20044;-89
2023/07/31 23:07:20;;;;;;;6.53;4.63;;;;;;;;;;8436447;28;20126;-86
2023/07/31 23:11:23;;;;;;;10.00;4.70;;;;;;;;;;8444680;28;20487;-86
2023/07/31 23:15:27;;;;;;;11.02;4.95;;;;;;;;;;8453297;28;20043;-90
2023/07/31 23:19:31;;;;;;;13.27;5.25;;;;;;;;;;8453270;28;20048;-86
2023/07/31 23:23:34;;;;;;;8.25;4.90;;;;;;;;;;8452730;28;20108;-87
2023/07/31 23:27:37;;;;;;;8.13;4.80;;;;;;;;;;8456262;28;20046;-86
2023/07/31 23:31:44;;;;;;;8.45;5.05;;;;;;;;;;8450708;28;20426;-86
2023/07/31 23:35:47;;;;;;;11.68;5.10;;;;;;;;;;8455539;28;20067;-88
2023/07/31 23:39:50;;;;;;;8.00;4.75;;;;;;;;;;8459802;28;20042;-86
2023/07/31 23:43:54;;;;;;;9.88;4.95;;;;;;;;;;8457372;28;20048;-86
2023/07/31 23:48:00;;;;;;;8.93;4.93;;;;;;;;;;8434429;28;20048;-86
2023/07/31 23:52:03;;;;;;;6.82;4.38;;;;;;;;;;8446186;28;20094;-87
2023/07/31 23:56:06;;;;;;;8.88;4.88;;;;;;;;;;8445900;28;20135;-90
